Terminal Aerodrome Forecast
Issued by NWS Shreveport, LA

Home | Current Version | Previous Version | Text Only | Print | Product List | Glossary On
Versions: 1 2 3 4 5 6 7 8 9 10 11 12 13 14 15 16 17 18 19
000
FTUS44 KSHV 291908 AAA
TAFTXK
TAF AMD
KTXK 291908Z 2919/3018 15012G20KT P6SM VCTS SCT025 BKN040CB
      TEMPO 2919/2923 1SM +TSRA BR OVC015CB
     FM300400 22006KT P6SM VCTS BKN030CB
      TEMPO 3008/3012 3SM TSRA BR OVC015CB
     FM301200 31008KT P6SM BKN100=

USA.gov is the U.S. government's official web portal to all federal, state and local government web resources and services.